createdAt,value
2023-03-30T00:00:36.300Z,2.50
2023-03-30T00:03:04.782Z,2.00
2023-03-30T00:05:32.086Z,2.40
2023-03-30T00:07:59.361Z,2.40
2023-03-30T00:10:27.226Z,2.20
2023-03-30T00:12:54.476Z,2.00
2023-03-30T00:15:22.496Z,2.20
2023-03-30T00:17:51.322Z,1.98
2023-03-30T00:20:18.758Z,1.90
2023-03-30T00:22:47.359Z,2.00
2023-03-30T00:25:16.714Z,2.20
2023-03-30T00:27:44.174Z,2.28
2023-03-30T00:30:13.385Z,2.08
2023-03-30T00:32:40.936Z,1.88
2023-03-30T00:35:08.334Z,2.10
2023-03-30T00:37:37.393Z,1.97
2023-03-30T00:40:09.676Z,2.28
2023-03-30T00:42:37.552Z,1.98
2023-03-30T00:45:11.076Z,2.00
2023-03-30T00:47:41.944Z,1.95
2023-03-30T00:50:09.716Z,2.05
2023-03-30T00:52:37.760Z,2.10
2023-03-30T00:55:08.756Z,2.15
2023-03-30T00:57:38.147Z,2.10
2023-03-30T01:00:07.879Z,2.08
2023-03-30T01:02:39.701Z,2.20
2023-03-30T01:05:07.170Z,2.10
2023-03-30T01:07:35.751Z,1.80
2023-03-30T01:10:03.352Z,1.70
2023-03-30T01:12:30.681Z,1.80
2023-03-30T01:14:58.160Z,2.20
2023-03-30T01:17:30.105Z,1.77
2023-03-30T01:20:14.790Z,1.95
2023-03-30T01:23:03.641Z,1.77
2023-03-30T01:25:34.133Z,1.90
2023-03-30T01:28:11.164Z,1.85
2023-03-30T01:30:38.344Z,1.95
2023-03-30T01:33:05.612Z,2.10
2023-03-30T01:35:36.060Z,1.80
2023-03-30T01:38:26.711Z,1.85
2023-03-30T01:41:09.932Z,1.80
2023-03-30T01:43:43.108Z,1.90
2023-03-30T01:46:30.964Z,1.88
2023-03-30T01:51:28.862Z,1.80
2023-03-30T01:54:00.129Z,1.90
2023-03-30T01:56:42.559Z,1.80
2023-03-30T01:59:15.872Z,1.90
2023-03-30T02:01:50.036Z,2.10
2023-03-30T02:04:18.109Z,1.77
2023-03-30T02:06:48.565Z,1.75
2023-03-30T02:09:17.171Z,1.80
2023-03-30T02:11:50.017Z,2.00
2023-03-30T02:14:19.195Z,1.70
2023-03-30T02:16:55.413Z,1.73
2023-03-30T02:19:22.679Z,1.52
2023-03-30T02:21:50.556Z,1.80
2023-03-30T02:24:20.074Z,1.88
2023-03-30T02:26:48.514Z,1.58
2023-03-30T02:29:16.631Z,1.80
2023-03-30T02:31:45.430Z,1.55
2023-03-30T02:34:34.538Z,1.80
2023-03-30T02:37:37.129Z,1.67
2023-03-30T02:40:17.323Z,1.60
2023-03-30T02:42:53.672Z,1.70
2023-03-30T02:45:21.008Z,1.50
2023-03-30T02:48:07.035Z,1.80
2023-03-30T02:50:39.311Z,1.75
2023-03-30T02:53:10.415Z,1.60
2023-03-30T02:55:56.303Z,1.75
2023-03-30T02:58:23.785Z,1.70
2023-03-30T03:00:51.007Z,1.75
2023-03-30T03:03:24.083Z,1.65
2023-03-30T03:05:55.281Z,1.70
2023-03-30T03:08:30.257Z,1.55
2023-03-30T03:10:57.488Z,1.70
2023-03-30T03:13:24.723Z,1.70
2023-03-30T03:15:56.204Z,1.60
2023-03-30T03:18:23.813Z,1.70
2023-03-30T03:20:51.452Z,1.60
2023-03-30T03:23:18.922Z,1.80
2023-03-30T03:25:46.162Z,1.25
2023-03-30T03:28:13.378Z,1.63
2023-03-30T03:30:40.678Z,1.52
2023-03-30T03:33:08.203Z,1.60
2023-03-30T03:35:39.323Z,1.70
2023-03-30T03:38:07.857Z,1.60
2023-03-30T03:40:35.065Z,1.50
2023-03-30T03:43:02.280Z,1.73
2023-03-30T03:45:29.534Z,1.45
2023-03-30T03:47:57.090Z,1.80
2023-03-30T03:50:24.609Z,1.58
2023-03-30T03:52:51.850Z,1.52
2023-03-30T03:55:19.670Z,1.67
2023-03-30T03:57:46.891Z,1.70
2023-03-30T04:00:17.361Z,1.75
2023-03-30T04:02:44.922Z,1.38
2023-03-30T04:05:12.364Z,1.67
2023-03-30T04:07:39.640Z,1.53
2023-03-30T04:10:08.062Z,1.67
2023-03-30T04:12:35.426Z,1.35
2023-03-30T04:15:02.696Z,1.33
2023-03-30T04:17:29.986Z,1.50
2023-03-30T04:19:57.213Z,1.80
2023-03-30T04:22:25.482Z,1.50
2023-03-30T04:24:53.947Z,1.50
2023-03-30T04:27:21.204Z,1.70
2023-03-30T04:29:48.416Z,1.40
2023-03-30T04:32:20.722Z,1.45
2023-03-30T04:34:48.176Z,1.40
2023-03-30T04:37:18.215Z,1.40
2023-03-30T04:39:45.718Z,1.48
2023-03-30T04:42:14.291Z,1.60
2023-03-30T04:44:41.648Z,1.38
2023-03-30T04:47:08.884Z,1.50
2023-03-30T04:49:36.106Z,1.50
2023-03-30T04:52:03.389Z,1.40
2023-03-30T04:54:32.738Z,1.40
2023-03-30T04:57:00.754Z,1.50
2023-03-30T04:59:28.032Z,1.50
2023-03-30T05:01:55.226Z,1.63
2023-03-30T05:04:22.472Z,1.77
2023-03-30T05:06:49.898Z,1.70
2023-03-30T05:09:17.724Z,1.42
2023-03-30T05:11:44.978Z,1.60
2023-03-30T05:14:12.207Z,1.67
2023-03-30T05:16:39.443Z,1.75
2023-03-30T05:19:06.838Z,1.70
2023-03-30T05:21:34.162Z,2.00
2023-03-30T05:24:01.778Z,1.67
2023-03-30T05:26:29.066Z,1.63
2023-03-30T05:28:56.307Z,2.00
2023-03-30T05:31:23.558Z,1.85
2023-03-30T05:33:52.172Z,1.75
2023-03-30T05:36:19.796Z,1.67
2023-03-30T05:38:47.017Z,1.58
2023-03-30T05:41:14.887Z,2.00
2023-03-30T05:43:42.142Z,1.83
2023-03-30T05:46:09.402Z,1.77
2023-03-30T05:48:36.752Z,1.80
2023-03-30T05:51:04.371Z,1.60
2023-03-30T05:53:31.756Z,1.75
2023-03-30T05:55:58.979Z,1.90
2023-03-30T05:58:27.421Z,2.38
2023-03-30T06:00:57.744Z,2.00
2023-03-30T06:03:25.205Z,1.75
2023-03-30T06:05:56.439Z,2.10
2023-03-30T06:08:24.376Z,1.77
2023-03-30T06:10:55.895Z,1.70
2023-03-30T06:13:23.362Z,2.25
2023-03-30T06:15:50.920Z,2.10
2023-03-30T06:18:18.190Z,2.20
2023-03-30T06:20:48.882Z,2.67
2023-03-30T06:23:16.471Z,1.83
2023-03-30T06:25:46.606Z,2.25
2023-03-30T06:28:13.837Z,2.08
2023-03-30T06:30:45.553Z,2.50
2023-03-30T06:33:12.828Z,2.10
2023-03-30T06:35:40.082Z,2.35
2023-03-30T06:38:07.393Z,2.67
2023-03-30T06:40:34.641Z,2.50
2023-03-30T06:43:02.014Z,2.25
2023-03-30T06:45:29.385Z,2.30
2023-03-30T06:47:56.792Z,2.20
2023-03-30T06:50:24.085Z,1.80
2023-03-30T06:52:51.320Z,2.47
2023-03-30T06:55:18.629Z,2.35
2023-03-30T06:57:46.106Z,2.53
2023-03-30T07:00:14.058Z,2.30
2023-03-30T07:02:44.898Z,2.30
2023-03-30T07:05:15.629Z,2.08
2023-03-30T07:07:43.109Z,2.38
2023-03-30T07:10:10.783Z,2.05
2023-03-30T07:12:38.533Z,2.20
2023-03-30T07:15:09.679Z,2.15
2023-03-30T07:17:37.645Z,2.10
2023-03-30T07:20:05.925Z,2.10
2023-03-30T07:25:00.326Z,2.10
2023-03-30T07:27:27.528Z,2.10
2023-03-30T07:29:55.629Z,1.63
2023-03-30T07:32:25.944Z,2.08
2023-03-30T07:34:53.480Z,2.17
2023-03-30T07:37:21.119Z,2.10
2023-03-30T07:39:48.795Z,2.42
2023-03-30T07:42:16.041Z,2.38
2023-03-30T07:44:43.333Z,2.08
2023-03-30T07:47:10.912Z,2.47
2023-03-30T07:49:38.182Z,2.50
2023-03-30T07:52:06.612Z,2.70
2023-03-30T07:54:33.897Z,2.10
2023-03-30T07:57:01.217Z,2.10
2023-03-30T07:59:28.437Z,2.38
2023-03-30T08:01:56.206Z,2.30
2023-03-30T08:04:26.568Z,2.67
2023-03-30T08:06:54.061Z,2.53
2023-03-30T08:09:21.320Z,2.50
2023-03-30T08:11:48.587Z,2.57
2023-03-30T08:14:15.874Z,2.50
2023-03-30T08:16:43.299Z,2.40
2023-03-30T08:19:10.598Z,2.40
2023-03-30T08:21:37.829Z,2.30
2023-03-30T08:24:05.184Z,2.43
2023-03-30T08:26:32.426Z,1.93
2023-03-30T08:28:59.650Z,3.00
2023-03-30T08:31:26.979Z,2.40
2023-03-30T08:33:54.292Z,2.20
2023-03-30T08:36:21.570Z,2.20
2023-03-30T08:38:48.873Z,2.40
2023-03-30T08:41:25.169Z,2.03
2023-03-30T08:43:54.954Z,2.58
2023-03-30T08:46:22.260Z,4.40
2023-03-30T08:48:50.076Z,4.93
2023-03-30T08:51:30.545Z,4.25
2023-03-30T08:53:59.002Z,3.50
2023-03-30T08:56:30.771Z,4.13
2023-03-30T08:59:33.641Z,3.58
2023-03-30T09:02:19.480Z,3.03
2023-03-30T09:04:54.875Z,2.70
2023-03-30T09:07:23.509Z,3.30
2023-03-30T09:09:55.236Z,3.30
2023-03-30T09:13:00.916Z,2.85
2023-03-30T09:15:40.420Z,2.63
2023-03-30T09:18:23.076Z,3.13
2023-03-30T09:20:52.124Z,2.75
2023-03-30T09:23:19.377Z,2.90
2023-03-30T09:25:53.475Z,2.77
2023-03-30T09:28:21.540Z,2.80
2023-03-30T09:31:04.242Z,2.90
2023-03-30T09:33:43.868Z,3.00
2023-03-30T09:36:14.962Z,2.92
2023-03-30T09:38:42.691Z,2.80
2023-03-30T09:41:17.720Z,2.90
2023-03-30T09:43:46.398Z,2.63
2023-03-30T09:46:15.740Z,2.20
2023-03-30T09:48:44.710Z,3.08
2023-03-30T09:51:31.401Z,2.60
2023-03-30T09:54:01.717Z,2.40
2023-03-30T09:56:29.137Z,2.60
2023-03-30T09:58:56.532Z,3.15
2023-03-30T10:01:36.039Z,2.20
2023-03-30T10:04:07.493Z,2.80
2023-03-30T10:06:37.881Z,2.33
2023-03-30T10:09:09.124Z,2.85
2023-03-30T10:11:38.252Z,2.53
2023-03-30T10:14:07.439Z,2.30
2023-03-30T10:16:34.891Z,3.00
2023-03-30T10:19:03.933Z,2.80
2023-03-30T10:21:32.396Z,2.50
2023-03-30T10:24:14.929Z,2.53
2023-03-30T10:26:46.545Z,2.50
2023-03-30T10:29:15.378Z,2.25
2023-03-30T10:31:47.479Z,2.13
2023-03-30T10:34:19.175Z,2.35
2023-03-30T10:36:49.574Z,2.33
2023-03-30T10:39:31.219Z,2.25
2023-03-30T10:42:01.244Z,2.17
2023-03-30T10:44:32.500Z,2.13
2023-03-30T10:47:11.542Z,2.72
2023-03-30T10:50:05.932Z,2.20
2023-03-30T10:52:56.261Z,2.65
2023-03-30T10:55:43.618Z,2.40
2023-03-30T10:58:21.129Z,2.35
2023-03-30T11:01:12.625Z,2.30
2023-03-30T11:03:40.929Z,2.45
2023-03-30T11:06:28.500Z,2.58
2023-03-30T11:08:57.810Z,2.30
2023-03-30T11:11:40.686Z,2.33
2023-03-30T11:14:31.359Z,2.53
2023-03-30T11:17:02.506Z,2.15
2023-03-30T11:19:29.784Z,2.42
2023-03-30T11:22:06.050Z,2.13
2023-03-30T11:24:35.836Z,2.67
2023-03-30T11:27:11.059Z,2.30
2023-03-30T11:29:47.747Z,2.50
2023-03-30T11:32:18.079Z,1.77
2023-03-30T11:34:48.283Z,2.15
2023-03-30T11:37:36.998Z,2.63
2023-03-30T11:40:11.827Z,2.35
2023-03-30T11:42:39.132Z,2.50
2023-03-30T11:45:17.680Z,2.03
2023-03-30T11:48:14.102Z,2.08
2023-03-30T11:50:43.420Z,2.15
2023-03-30T11:53:18.537Z,2.20
2023-03-30T11:56:11.842Z,2.10
2023-03-30T11:58:43.159Z,2.40
2023-03-30T12:01:19.307Z,2.17
2023-03-30T12:04:19.023Z,1.90
2023-03-30T12:06:52.908Z,2.22
2023-03-30T12:09:28.469Z,1.70
2023-03-30T12:11:55.684Z,2.35
2023-03-30T12:14:35.302Z,2.30
2023-03-30T12:17:11.582Z,2.30
2023-03-30T12:19:56.680Z,2.17
2023-03-30T12:22:32.711Z,2.50
2023-03-30T12:25:20.356Z,1.90
2023-03-30T12:27:53.298Z,2.08
2023-03-30T12:30:28.252Z,2.20
2023-03-30T12:33:03.279Z,2.05
2023-03-30T12:35:48.993Z,2.20
2023-03-30T12:38:17.726Z,2.38
2023-03-30T12:40:47.481Z,2.35
2023-03-30T12:46:02.200Z,2.60
2023-03-30T12:51:03.051Z,2.60
2023-03-30T12:53:33.440Z,2.30
2023-03-30T12:56:19.148Z,2.40
2023-03-30T12:59:05.025Z,2.20
2023-03-30T13:01:51.074Z,2.33
2023-03-30T13:04:26.142Z,2.10
2023-03-30T13:06:53.411Z,2.00
2023-03-30T13:09:22.206Z,2.33
2023-03-30T13:11:50.088Z,2.33
2023-03-30T13:14:39.155Z,2.33
2023-03-30T13:17:17.108Z,2.28
2023-03-30T13:22:11.607Z,2.03
2023-03-30T13:24:54.165Z,2.93
2023-03-30T13:27:21.583Z,2.17
2023-03-30T13:30:10.773Z,2.30
2023-03-30T13:32:41.042Z,2.28
2023-03-30T13:35:08.350Z,2.05
2023-03-30T13:37:35.882Z,2.20
2023-03-30T13:40:08.960Z,2.30
2023-03-30T13:42:39.228Z,2.50
2023-03-30T13:45:06.430Z,2.10
2023-03-30T13:47:48.959Z,2.00
2023-03-30T13:50:18.959Z,2.08
2023-03-30T13:52:47.631Z,2.13
2023-03-30T13:55:25.568Z,2.08
2023-03-30T13:57:55.686Z,2.10
2023-03-30T14:00:28.265Z,2.17
2023-03-30T14:02:55.662Z,2.10
2023-03-30T14:05:26.333Z,2.80
2023-03-30T14:07:57.055Z,2.40
2023-03-30T14:10:25.377Z,1.90
2023-03-30T14:12:57.040Z,2.30
2023-03-30T14:15:26.864Z,2.00
2023-03-30T14:17:59.574Z,2.40
2023-03-30T14:20:47.233Z,2.05
2023-03-30T14:23:17.223Z,2.30
2023-03-30T14:25:44.497Z,2.05
2023-03-30T14:28:21.739Z,1.80
2023-03-30T14:30:56.644Z,2.00
2023-03-30T14:33:24.271Z,2.10
2023-03-30T14:35:53.520Z,2.13
2023-03-30T14:38:25.535Z,2.08
2023-03-30T14:40:53.876Z,1.83
2023-03-30T14:43:24.486Z,1.88
2023-03-30T14:45:55.420Z,2.00
2023-03-30T14:48:29.504Z,1.73
2023-03-30T14:50:56.823Z,1.90
2023-03-30T14:53:28.012Z,1.90
2023-03-30T14:55:57.040Z,2.00
2023-03-30T14:58:28.525Z,1.95
2023-03-30T15:00:58.534Z,1.90
2023-03-30T15:03:33.413Z,2.03
2023-03-30T15:06:01.897Z,2.45
2023-03-30T15:11:00.110Z,2.20
2023-03-30T15:13:28.990Z,2.17
2023-03-30T15:15:57.436Z,2.60
2023-03-30T15:18:27.052Z,2.42
2023-03-30T15:20:55.555Z,2.30
2023-03-30T15:23:24.148Z,1.95
2023-03-30T15:25:51.402Z,2.47
2023-03-30T15:28:20.594Z,2.40
2023-03-30T15:30:51.234Z,1.90
2023-03-30T15:33:24.804Z,2.30
2023-03-30T15:35:53.428Z,2.47
2023-03-30T15:38:31.321Z,2.10
2023-03-30T15:40:58.619Z,2.20
2023-03-30T15:43:27.240Z,2.27
2023-03-30T15:46:02.487Z,2.58
2023-03-30T15:48:43.324Z,2.30
2023-03-30T15:51:22.922Z,1.83
2023-03-30T15:53:56.174Z,2.05
2023-03-30T15:56:25.297Z,2.03
2023-03-30T15:58:52.591Z,2.38
2023-03-30T16:01:20.049Z,2.70
2023-03-30T16:04:06.398Z,2.00
2023-03-30T16:06:33.734Z,2.38
2023-03-30T16:09:01.006Z,2.23
2023-03-30T16:11:28.499Z,2.07
2023-03-30T16:13:55.992Z,2.38
2023-03-30T16:16:23.292Z,2.08
2023-03-30T16:18:50.870Z,2.37
2023-03-30T16:21:18.923Z,1.90
2023-03-30T16:23:46.177Z,2.05
2023-03-30T16:26:13.889Z,2.13
2023-03-30T16:28:42.817Z,2.00
2023-03-30T16:31:20.762Z,2.28
2023-03-30T16:33:48.080Z,1.88
2023-03-30T16:36:19.606Z,1.80
2023-03-30T16:38:47.136Z,2.50
2023-03-30T16:41:19.978Z,1.80
2023-03-30T16:43:47.688Z,2.20
2023-03-30T16:46:16.249Z,1.95
2023-03-30T16:48:43.705Z,1.90
2023-03-30T16:51:11.888Z,2.17
2023-03-30T16:56:06.458Z,1.93
2023-03-30T16:58:33.676Z,1.92
2023-03-30T17:01:04.438Z,2.10
2023-03-30T17:03:32.037Z,1.90
2023-03-30T17:05:59.494Z,1.70
2023-03-30T17:08:28.033Z,1.60
2023-03-30T17:10:56.649Z,1.90
2023-03-30T17:13:24.002Z,1.73
2023-03-30T17:15:51.396Z,1.90
2023-03-30T17:18:22.767Z,1.90
2023-03-30T17:20:52.120Z,2.30
2023-03-30T17:23:20.237Z,2.40
2023-03-30T17:25:49.263Z,4.60
2023-03-30T17:28:27.178Z,9.25
2023-03-30T17:30:58.576Z,7.13
2023-03-30T17:33:26.366Z,6.60
2023-03-30T17:36:04.507Z,4.93
2023-03-30T17:38:31.748Z,4.60
2023-03-30T17:40:59.374Z,4.55
2023-03-30T17:43:26.591Z,3.80
2023-03-30T17:45:53.848Z,4.10
2023-03-30T17:48:21.630Z,4.03
2023-03-30T17:50:50.285Z,4.18
2023-03-30T17:53:18.573Z,3.80
2023-03-30T17:58:22.030Z,3.47
2023-03-30T18:00:52.124Z,3.63
2023-03-30T18:03:20.935Z,3.65
2023-03-30T18:05:48.718Z,3.85
2023-03-30T18:08:18.069Z,3.05
2023-03-30T18:10:48.065Z,3.63
2023-03-30T18:13:18.996Z,3.28
2023-03-30T18:15:49.282Z,3.00
2023-03-30T18:18:24.257Z,3.08
2023-03-30T18:20:52.439Z,3.20
2023-03-30T18:23:19.915Z,2.85
2023-03-30T18:25:47.311Z,2.90
2023-03-30T18:28:16.568Z,2.57
2023-03-30T18:30:43.883Z,3.25
2023-03-30T18:33:11.159Z,3.20
2023-03-30T18:35:38.941Z,3.37
2023-03-30T18:38:06.896Z,3.30
2023-03-30T18:40:37.124Z,3.38
2023-03-30T18:43:04.870Z,3.00
2023-03-30T18:45:38.152Z,3.70
2023-03-30T18:48:06.482Z,3.22
2023-03-30T18:53:04.353Z,3.08
2023-03-30T18:55:33.074Z,2.85
2023-03-30T18:58:00.328Z,3.42
2023-03-30T19:00:28.975Z,3.00
2023-03-30T19:02:56.757Z,2.85
2023-03-30T19:05:25.585Z,3.00
2023-03-30T19:07:52.920Z,2.47
2023-03-30T19:10:22.032Z,2.70
2023-03-30T19:12:53.346Z,2.97
2023-03-30T19:15:22.060Z,2.72
2023-03-30T19:17:49.453Z,2.72
2023-03-30T19:20:16.871Z,2.80
2023-03-30T19:22:44.500Z,2.83
2023-03-30T19:25:12.669Z,2.78
2023-03-30T19:30:15.283Z,2.88
2023-03-30T19:32:43.186Z,2.58
2023-03-30T19:35:10.435Z,2.67
2023-03-30T19:37:38.299Z,2.35
2023-03-30T19:40:06.549Z,2.53
2023-03-30T19:45:01.643Z,2.42
2023-03-30T19:47:30.924Z,2.50
2023-03-30T19:50:01.404Z,2.60
2023-03-30T19:52:28.675Z,3.08
2023-03-30T19:54:55.935Z,2.50
2023-03-30T19:57:23.409Z,2.63
2023-03-30T19:59:51.804Z,2.55
2023-03-30T20:02:19.518Z,2.80
2023-03-30T20:04:47.315Z,2.50
2023-03-30T20:07:15.450Z,2.70
2023-03-30T20:09:43.340Z,2.35
2023-03-30T20:12:11.454Z,2.40
2023-03-30T20:17:10.158Z,2.30
2023-03-30T20:19:40.700Z,2.35
2023-03-30T20:22:09.267Z,2.05
2023-03-30T20:24:39.164Z,2.38
2023-03-30T20:27:06.963Z,2.35
2023-03-30T20:29:34.314Z,2.55
2023-03-30T20:32:01.683Z,2.13
2023-03-30T20:34:31.676Z,2.55
2023-03-30T20:36:58.887Z,2.35
2023-03-30T20:39:29.261Z,2.53
2023-03-30T20:41:58.321Z,2.50
2023-03-30T20:44:32.238Z,2.50
2023-03-30T20:46:59.993Z,2.38
2023-03-30T20:49:28.666Z,1.95
2023-03-30T20:51:56.005Z,2.40
2023-03-30T20:54:23.262Z,2.00
2023-03-30T20:56:50.555Z,2.17
2023-03-30T20:59:17.844Z,2.50
2023-03-30T21:01:47.211Z,2.47
2023-03-30T21:04:14.627Z,2.10
2023-03-30T21:06:44.703Z,2.50
2023-03-30T21:09:12.305Z,2.30
2023-03-30T21:11:39.904Z,2.20
2023-03-30T21:14:08.471Z,2.35
2023-03-30T21:16:37.895Z,2.15
2023-03-30T21:19:06.040Z,2.13
2023-03-30T21:21:37.569Z,2.33
2023-03-30T21:24:05.889Z,1.98
2023-03-30T21:29:02.703Z,2.13
2023-03-30T21:31:30.009Z,1.90
2023-03-30T21:33:57.416Z,2.30
2023-03-30T21:36:24.714Z,2.10
2023-03-30T21:38:52.000Z,2.40
2023-03-30T21:41:24.462Z,2.10
2023-03-30T21:43:51.738Z,2.35
2023-03-30T21:46:20.783Z,1.98
2023-03-30T21:48:49.407Z,2.03
2023-03-30T21:51:19.204Z,2.05
2023-03-30T21:53:48.317Z,2.20
2023-03-30T21:56:18.829Z,2.00
2023-03-30T21:58:46.203Z,1.90
2023-03-30T22:01:13.530Z,2.00
2023-03-30T22:03:45.766Z,2.10
2023-03-30T22:06:14.104Z,2.10
2023-03-30T22:11:21.926Z,2.10
2023-03-30T22:13:50.132Z,2.05
2023-03-30T22:18:44.868Z,2.10
2023-03-30T22:21:17.269Z,1.98
2023-03-30T22:23:44.696Z,2.00
2023-03-30T22:26:12.656Z,2.27
2023-03-30T22:28:40.413Z,1.90
2023-03-30T22:31:11.491Z,2.40
2023-03-30T22:33:38.905Z,1.92
2023-03-30T22:36:07.163Z,1.97
2023-03-30T22:38:34.897Z,2.08
2023-03-30T22:41:06.542Z,1.60
2023-03-30T22:43:34.724Z,2.10
2023-03-30T22:46:04.439Z,1.80
2023-03-30T22:48:32.326Z,2.13
2023-03-30T22:51:03.025Z,1.83
2023-03-30T22:53:31.024Z,1.95
2023-03-30T22:55:58.266Z,2.05
2023-03-30T22:58:25.486Z,2.07
2023-03-30T23:00:52.826Z,1.77
2023-03-30T23:03:20.470Z,1.73
2023-03-30T23:05:51.775Z,1.58
2023-03-30T23:08:19.021Z,1.77
2023-03-30T23:10:46.318Z,2.00
2023-03-30T23:13:14.213Z,1.57
2023-03-30T23:15:42.759Z,1.83
2023-03-30T23:18:10.065Z,1.55
2023-03-30T23:20:37.411Z,1.80
2023-03-30T23:23:04.641Z,1.57
2023-03-30T23:25:34.063Z,1.70
2023-03-30T23:28:03.499Z,1.70
2023-03-30T23:30:30.725Z,1.70
2023-03-30T23:32:58.022Z,1.65
2023-03-30T23:35:25.559Z,1.67
2023-03-30T23:37:53.985Z,1.90
2023-03-30T23:40:21.193Z,1.58
2023-03-30T23:42:48.398Z,1.55
2023-03-30T23:45:15.754Z,1.60
2023-03-30T23:47:44.065Z,1.67
2023-03-30T23:50:11.444Z,1.65
2023-03-30T23:52:38.670Z,1.60
2023-03-30T23:55:06.236Z,1.98
2023-03-30T23:57:33.524Z,1.60
